sensor_id;sensor_type;location;lat;lon;timestamp;P1;durP1;ratioP1;P2;durP2;ratioP2
37237;SDS011;23129;49.662;8.448;2024-02-21T00:01:30;12.55;;;3.72;;
37237;SDS011;23129;49.662;8.448;2024-02-21T00:04:01;13.30;;;4.18;;
37237;SDS011;23129;49.662;8.448;2024-02-21T00:06:32;15.65;;;4.63;;
37237;SDS011;23129;49.662;8.448;2024-02-21T00:09:00;18.35;;;4.15;;
37237;SDS011;23129;49.662;8.448;2024-02-21T00:11:29;12.73;;;4.22;;
37237;SDS011;23129;49.662;8.448;2024-02-21T00:13:58;12.35;;;4.03;;
37237;SDS011;23129;49.662;8.448;2024-02-21T00:16:27;7.95;;;4.32;;
37237;SDS011;23129;49.662;8.448;2024-02-21T00:18:55;10.98;;;4.00;;
37237;SDS011;23129;49.662;8.448;2024-02-21T00:21:25;6.80;;;3.03;;
37237;SDS011;23129;49.662;8.448;2024-02-21T00:24:01;11.05;;;4.93;;
37237;SDS011;23129;49.662;8.448;2024-02-21T00:27:16;12.52;;;3.42;;
37237;SDS011;23129;49.662;8.448;2024-02-21T00:29:44;9.40;;;3.20;;
37237;SDS011;23129;49.662;8.448;2024-02-21T00:32:13;16.17;;;4.57;;
37237;SDS011;23129;49.662;8.448;2024-02-21T00:34:42;17.08;;;4.60;;
37237;SDS011;23129;49.662;8.448;2024-02-21T00:37:12;14.32;;;4.05;;
37237;SDS011;23129;49.662;8.448;2024-02-21T00:39:40;15.73;;;4.72;;
37237;SDS011;23129;49.662;8.448;2024-02-21T00:42:09;8.60;;;4.35;;
37237;SDS011;23129;49.662;8.448;2024-02-21T00:44:38;27.02;;;4.43;;
37237;SDS011;23129;49.662;8.448;2024-02-21T00:47:07;16.63;;;4.90;;
37237;SDS011;23129;49.662;8.448;2024-02-21T00:49:35;12.48;;;4.68;;
37237;SDS011;23129;49.662;8.448;2024-02-21T00:52:04;10.82;;;4.00;;
37237;SDS011;23129;49.662;8.448;2024-02-21T00:54:34;29.98;;;5.05;;
37237;SDS011;23129;49.662;8.448;2024-02-21T00:57:16;17.65;;;5.75;;
37237;SDS011;23129;49.662;8.448;2024-02-21T00:59:45;16.38;;;5.35;;
37237;SDS011;23129;49.662;8.448;2024-02-21T01:02:13;20.67;;;5.88;;
37237;SDS011;23129;49.662;8.448;2024-02-21T01:04:42;15.70;;;5.07;;
37237;SDS011;23129;49.662;8.448;2024-02-21T01:07:11;15.23;;;5.30;;
37237;SDS011;23129;49.662;8.448;2024-02-21T01:09:41;11.30;;;4.78;;
37237;SDS011;23129;49.662;8.448;2024-02-21T01:12:10;18.65;;;5.55;;
37237;SDS011;23129;49.662;8.448;2024-02-21T01:14:39;17.83;;;5.65;;
37237;SDS011;23129;49.662;8.448;2024-02-21T01:17:07;6.80;;;4.15;;
37237;SDS011;23129;49.662;8.448;2024-02-21T01:19:36;16.40;;;5.10;;
37237;SDS011;23129;49.662;8.448;2024-02-21T01:22:05;9.88;;;3.97;;
37237;SDS011;23129;49.662;8.448;2024-02-21T01:24:33;17.30;;;4.65;;
37237;SDS011;23129;49.662;8.448;2024-02-21T01:27:03;12.40;;;4.53;;
37237;SDS011;23129;49.662;8.448;2024-02-21T01:29:32;9.10;;;5.13;;
37237;SDS011;23129;49.662;8.448;2024-02-21T01:32:01;14.52;;;4.97;;
37237;SDS011;23129;49.662;8.448;2024-02-21T01:34:30;14.52;;;4.97;;
37237;SDS011;23129;49.662;8.448;2024-02-21T01:36:59;18.52;;;5.78;;
37237;SDS011;23129;49.662;8.448;2024-02-21T01:39:31;11.55;;;4.53;;
37237;SDS011;23129;49.662;8.448;2024-02-21T01:41:59;14.25;;;5.18;;
37237;SDS011;23129;49.662;8.448;2024-02-21T01:44:29;10.13;;;4.82;;
37237;SDS011;23129;49.662;8.448;2024-02-21T01:46:59;10.13;;;5.03;;
37237;SDS011;23129;49.662;8.448;2024-02-21T01:49:28;14.63;;;4.63;;
37237;SDS011;23129;49.662;8.448;2024-02-21T01:51:57;10.32;;;5.30;;
37237;SDS011;23129;49.662;8.448;2024-02-21T01:54:25;12.38;;;5.40;;
37237;SDS011;23129;49.662;8.448;2024-02-21T01:56:55;18.98;;;6.13;;
37237;SDS011;23129;49.662;8.448;2024-02-21T01:59:24;18.70;;;5.45;;
37237;SDS011;23129;49.662;8.448;2024-02-21T02:01:55;19.20;;;5.03;;
37237;SDS011;23129;49.662;8.448;2024-02-21T02:04:24;15.90;;;4.53;;
37237;SDS011;23129;49.662;8.448;2024-02-21T02:06:54;6.53;;;4.07;;
37237;SDS011;23129;49.662;8.448;2024-02-21T02:09:23;23.38;;;5.38;;
37237;SDS011;23129;49.662;8.448;2024-02-21T02:11:52;14.40;;;4.45;;
37237;SDS011;23129;49.662;8.448;2024-02-21T02:14:20;15.48;;;4.80;;
37237;SDS011;23129;49.662;8.448;2024-02-21T02:16:49;17.70;;;4.80;;
37237;SDS011;23129;49.662;8.448;2024-02-21T02:19:19;14.27;;;5.28;;
37237;SDS011;23129;49.662;8.448;2024-02-21T02:21:49;15.02;;;5.68;;
37237;SDS011;23129;49.662;8.448;2024-02-21T02:24:24;11.85;;;3.92;;
37237;SDS011;23129;49.662;8.448;2024-02-21T02:26:53;12.68;;;5.03;;
37237;SDS011;23129;49.662;8.448;2024-02-21T02:29:22;8.27;;;4.43;;
37237;SDS011;23129;49.662;8.448;2024-02-21T02:31:50;16.30;;;4.88;;
37237;SDS011;23129;49.662;8.448;2024-02-21T02:34:19;7.50;;;4.32;;
37237;SDS011;23129;49.662;8.448;2024-02-21T02:36:48;16.95;;;4.68;;
37237;SDS011;23129;49.662;8.448;2024-02-21T02:39:17;13.93;;;5.20;;
37237;SDS011;23129;49.662;8.448;2024-02-21T02:41:47;11.30;;;4.90;;
37237;SDS011;23129;49.662;8.448;2024-02-21T02:44:16;13.02;;;4.38;;
37237;SDS011;23129;49.662;8.448;2024-02-21T02:46:44;15.55;;;4.35;;
37237;SDS011;23129;49.662;8.448;2024-02-21T02:49:13;11.93;;;4.85;;
37237;SDS011;23129;49.662;8.448;2024-02-21T02:51:42;17.02;;;4.90;;
37237;SDS011;23129;49.662;8.448;2024-02-21T02:54:11;10.38;;;4.47;;
37237;SDS011;23129;49.662;8.448;2024-02-21T02:56:40;13.90;;;4.80;;
37237;SDS011;23129;49.662;8.448;2024-02-21T02:59:11;11.32;;;3.95;;
37237;SDS011;23129;49.662;8.448;2024-02-21T03:01:39;12.55;;;4.70;;
37237;SDS011;23129;49.662;8.448;2024-02-21T03:04:08;16.10;;;4.80;;
37237;SDS011;23129;49.662;8.448;2024-02-21T03:06:38;15.63;;;4.70;;
37237;SDS011;23129;49.662;8.448;2024-02-21T03:09:06;11.52;;;4.68;;
37237;SDS011;23129;49.662;8.448;2024-02-21T03:11:35;21.05;;;5.25;;
37237;SDS011;23129;49.662;8.448;2024-02-21T03:14:07;15.27;;;4.72;;
37237;SDS011;23129;49.662;8.448;2024-02-21T03:16:37;14.23;;;4.57;;
37237;SDS011;23129;49.662;8.448;2024-02-21T03:19:05;12.25;;;5.00;;
37237;SDS011;23129;49.662;8.448;2024-02-21T03:21:34;19.90;;;5.60;;
37237;SDS011;23129;49.662;8.448;2024-02-21T03:24:03;26.73;;;5.65;;
37237;SDS011;23129;49.662;8.448;2024-02-21T03:26:32;17.75;;;5.53;;
37237;SDS011;23129;49.662;8.448;2024-02-21T03:29:01;23.20;;;5.10;;
37237;SDS011;23129;49.662;8.448;2024-02-21T03:31:31;15.13;;;4.90;;
37237;SDS011;23129;49.662;8.448;2024-02-21T03:34:01;10.18;;;3.78;;
37237;SDS011;23129;49.662;8.448;2024-02-21T03:36:30;20.25;;;4.43;;
37237;SDS011;23129;49.662;8.448;2024-02-21T03:38:58;11.23;;;4.07;;
37237;SDS011;23129;49.662;8.448;2024-02-21T03:41:27;22.25;;;4.50;;
37237;SDS011;23129;49.662;8.448;2024-02-21T03:43:56;15.93;;;4.38;;
37237;SDS011;23129;49.662;8.448;2024-02-21T03:46:25;10.68;;;4.07;;
37237;SDS011;23129;49.662;8.448;2024-02-21T03:48:54;13.20;;;4.20;;
37237;SDS011;23129;49.662;8.448;2024-02-21T03:51:25;12.38;;;4.32;;
37237;SDS011;23129;49.662;8.448;2024-02-21T03:53:53;17.27;;;4.68;;
37237;SDS011;23129;49.662;8.448;2024-02-21T03:56:22;14.55;;;4.88;;
37237;SDS011;23129;49.662;8.448;2024-02-21T03:58:51;15.75;;;4.60;;
37237;SDS011;23129;49.662;8.448;2024-02-21T04:01:20;15.80;;;3.92;;
37237;SDS011;23129;49.662;8.448;2024-02-21T04:03:49;16.05;;;4.70;;
37237;SDS011;23129;49.662;8.448;2024-02-21T04:06:18;5.68;;;3.67;;
37237;SDS011;23129;49.662;8.448;2024-02-21T04:08:48;17.13;;;4.40;;
37237;SDS011;23129;49.662;8.448;2024-02-21T04:11:17;13.27;;;4.22;;
37237;SDS011;23129;49.662;8.448;2024-02-21T04:13:46;9.23;;;4.28;;
37237;SDS011;23129;49.662;8.448;2024-02-21T04:16:17;10.27;;;4.25;;
37237;SDS011;23129;49.662;8.448;2024-02-21T04:18:45;11.20;;;3.95;;
37237;SDS011;23129;49.662;8.448;2024-02-21T04:21:14;10.90;;;4.22;;
37237;SDS011;23129;49.662;8.448;2024-02-21T04:23:44;11.65;;;4.53;;
37237;SDS011;23129;49.662;8.448;2024-02-21T04:26:14;10.68;;;4.07;;
37237;SDS011;23129;49.662;8.448;2024-02-21T04:28:44;12.10;;;4.63;;
37237;SDS011;23129;49.662;8.448;2024-02-21T04:31:13;10.75;;;3.80;;
37237;SDS011;23129;49.662;8.448;2024-02-21T04:33:42;18.48;;;5.38;;
37237;SDS011;23129;49.662;8.448;2024-02-21T04:36:11;10.32;;;5.05;;
37237;SDS011;23129;49.662;8.448;2024-02-21T04:38:39;9.15;;;4.10;;
37237;SDS011;23129;49.662;8.448;2024-02-21T04:41:08;10.38;;;3.80;;
37237;SDS011;23129;49.662;8.448;2024-02-21T04:43:38;7.95;;;3.20;;
37237;SDS011;23129;49.662;8.448;2024-02-21T04:46:07;9.48;;;4.13;;
37237;SDS011;23129;49.662;8.448;2024-02-21T04:48:36;12.20;;;4.25;;
37237;SDS011;23129;49.662;8.448;2024-02-21T04:51:05;10.43;;;3.72;;
37237;SDS011;23129;49.662;8.448;2024-02-21T04:53:33;15.18;;;3.40;;
37237;SDS011;23129;49.662;8.448;2024-02-21T04:56:02;20.17;;;4.20;;
37237;SDS011;23129;49.662;8.448;2024-02-21T04:58:31;16.65;;;4.85;;
37237;SDS011;23129;49.662;8.448;2024-02-21T05:01:02;11.32;;;4.10;;
37237;SDS011;23129;49.662;8.448;2024-02-21T05:03:30;16.65;;;4.10;;
37237;SDS011;23129;49.662;8.448;2024-02-21T05:05:59;6.93;;;3.75;;
37237;SDS011;23129;49.662;8.448;2024-02-21T05:08:28;9.70;;;3.28;;
37237;SDS011;23129;49.662;8.448;2024-02-21T05:10:57;13.73;;;4.35;;
37237;SDS011;23129;49.662;8.448;2024-02-21T05:13:26;10.27;;;3.83;;
37237;SDS011;23129;49.662;8.448;2024-02-21T05:15:54;8.57;;;4.00;;
37237;SDS011;23129;49.662;8.448;2024-02-21T05:18:24;17.67;;;5.10;;
37237;SDS011;23129;49.662;8.448;2024-02-21T05:20:53;8.90;;;4.05;;
37237;SDS011;23129;49.662;8.448;2024-02-21T05:23:22;26.90;;;4.75;;
37237;SDS011;23129;49.662;8.448;2024-02-21T05:25:51;12.65;;;4.18;;
37237;SDS011;23129;49.662;8.448;2024-02-21T05:28:19;6.50;;;3.67;;
37237;SDS011;23129;49.662;8.448;2024-02-21T05:30:48;6.80;;;3.55;;
37237;SDS011;23129;49.662;8.448;2024-02-21T05:33:17;11.15;;;4.28;;
37237;SDS011;23129;49.662;8.448;2024-02-21T05:35:50;13.85;;;4.50;;
37237;SDS011;23129;49.662;8.448;2024-02-21T05:38:18;11.85;;;4.07;;
37237;SDS011;23129;49.662;8.448;2024-02-21T05:40:47;17.60;;;5.38;;
37237;SDS011;23129;49.662;8.448;2024-02-21T05:43:16;8.43;;;3.67;;
37237;SDS011;23129;49.662;8.448;2024-02-21T05:45:44;16.27;;;4.85;;
37237;SDS011;23129;49.662;8.448;2024-02-21T05:48:13;5.97;;;3.53;;
37237;SDS011;23129;49.662;8.448;2024-02-21T05:50:42;7.32;;;3.38;;
37237;SDS011;23129;49.662;8.448;2024-02-21T05:53:12;9.38;;;4.47;;
37237;SDS011;23129;49.662;8.448;2024-02-21T05:55:41;6.05;;;3.63;;
37237;SDS011;23129;49.662;8.448;2024-02-21T05:58:09;16.55;;;4.43;;
37237;SDS011;23129;49.662;8.448;2024-02-21T06:00:40;10.93;;;4.78;;
37237;SDS011;23129;49.662;8.448;2024-02-21T06:03:08;11.35;;;4.10;;
37237;SDS011;23129;49.662;8.448;2024-02-21T06:05:37;10.48;;;3.70;;
37237;SDS011;23129;49.662;8.448;2024-02-21T06:08:07;12.10;;;4.53;;
37237;SDS011;23129;49.662;8.448;2024-02-21T06:10:37;11.05;;;4.20;;
37237;SDS011;23129;49.662;8.448;2024-02-21T06:13:06;17.23;;;4.78;;
37237;SDS011;23129;49.662;8.448;2024-02-21T06:15:36;6.70;;;3.80;;
37237;SDS011;23129;49.662;8.448;2024-02-21T06:18:04;12.32;;;4.30;;
37237;SDS011;23129;49.662;8.448;2024-02-21T06:20:33;11.23;;;4.03;;
37237;SDS011;23129;49.662;8.448;2024-02-21T06:23:05;7.40;;;3.95;;
37237;SDS011;23129;49.662;8.448;2024-02-21T06:25:34;13.98;;;4.93;;
37237;SDS011;23129;49.662;8.448;2024-02-21T06:28:05;12.68;;;4.97;;
37237;SDS011;23129;49.662;8.448;2024-02-21T06:30:33;10.90;;;4.53;;
37237;SDS011;23129;49.662;8.448;2024-02-21T06:33:03;16.10;;;5.25;;
37237;SDS011;23129;49.662;8.448;2024-02-21T06:35:32;10.25;;;5.43;;
37237;SDS011;23129;49.662;8.448;2024-02-21T06:38:00;17.75;;;5.75;;
37237;SDS011;23129;49.662;8.448;2024-02-21T06:40:29;12.75;;;5.22;;
37237;SDS011;23129;49.662;8.448;2024-02-21T06:43:06;10.63;;;4.75;;
37237;SDS011;23129;49.662;8.448;2024-02-21T06:45:34;11.60;;;4.72;;
37237;SDS011;23129;49.662;8.448;2024-02-21T06:48:03;10.30;;;4.72;;
37237;SDS011;23129;49.662;8.448;2024-02-21T06:50:33;9.20;;;3.63;;
37237;SDS011;23129;49.662;8.448;2024-02-21T06:53:01;9.93;;;4.60;;
37237;SDS011;23129;49.662;8.448;2024-02-21T06:55:30;14.52;;;4.78;;
37237;SDS011;23129;49.662;8.448;2024-02-21T06:57:59;19.52;;;5.13;;
37237;SDS011;23129;49.662;8.448;2024-02-21T07:00:29;15.75;;;5.10;;
37237;SDS011;23129;49.662;8.448;2024-02-21T07:02:58;5.97;;;4.53;;
37237;SDS011;23129;49.662;8.448;2024-02-21T07:05:26;11.95;;;5.10;;
37237;SDS011;23129;49.662;8.448;2024-02-21T07:07:55;12.43;;;5.72;;
37237;SDS011;23129;49.662;8.448;2024-02-21T07:10:24;9.43;;;5.15;;
37237;SDS011;23129;49.662;8.448;2024-02-21T07:12:54;13.15;;;4.20;;
37237;SDS011;23129;49.662;8.448;2024-02-21T07:15:23;10.52;;;5.13;;
37237;SDS011;23129;49.662;8.448;2024-02-21T07:17:56;17.92;;;5.93;;
37237;SDS011;23129;49.662;8.448;2024-02-21T07:20:24;10.98;;;5.03;;
37237;SDS011;23129;49.662;8.448;2024-02-21T07:22:53;9.63;;;5.50;;
37237;SDS011;23129;49.662;8.448;2024-02-21T07:25:22;29.88;;;5.68;;
37237;SDS011;23129;49.662;8.448;2024-02-21T07:27:51;12.18;;;5.80;;
37237;SDS011;23129;49.662;8.448;2024-02-21T07:30:19;12.32;;;6.38;;
37237;SDS011;23129;49.662;8.448;2024-02-21T07:32:48;15.15;;;5.63;;
37237;SDS011;23129;49.662;8.448;2024-02-21T07:35:19;15.75;;;5.25;;
37237;SDS011;23129;49.662;8.448;2024-02-21T07:37:47;12.82;;;5.60;;
37237;SDS011;23129;49.662;8.448;2024-02-21T07:40:16;14.75;;;5.18;;
37237;SDS011;23129;49.662;8.448;2024-02-21T07:42:45;14.82;;;4.68;;
37237;SDS011;23129;49.662;8.448;2024-02-21T07:45:17;19.67;;;5.10;;
37237;SDS011;23129;49.662;8.448;2024-02-21T07:47:48;20.55;;;6.90;;
37237;SDS011;23129;49.662;8.448;2024-02-21T07:50:17;11.70;;;5.20;;
37237;SDS011;23129;49.662;8.448;2024-02-21T07:52:47;15.73;;;6.18;;
37237;SDS011;23129;49.662;8.448;2024-02-21T07:55:16;14.35;;;5.25;;
37237;SDS011;23129;49.662;8.448;2024-02-21T07:57:45;19.73;;;6.10;;
37237;SDS011;23129;49.662;8.448;2024-02-21T08:00:13;14.57;;;4.95;;
37237;SDS011;23129;49.662;8.448;2024-02-21T08:02:47;13.65;;;4.70;;
37237;SDS011;23129;49.662;8.448;2024-02-21T08:05:16;15.45;;;6.28;;
37237;SDS011;23129;49.662;8.448;2024-02-21T08:07:48;10.82;;;6.13;;
37237;SDS011;23129;49.662;8.448;2024-02-21T08:10:16;16.70;;;6.45;;
37237;SDS011;23129;49.662;8.448;2024-02-21T08:12:45;13.48;;;5.55;;
37237;SDS011;23129;49.662;8.448;2024-02-21T08:15:14;20.52;;;6.22;;
37237;SDS011;23129;49.662;8.448;2024-02-21T08:17:43;13.32;;;5.90;;
37237;SDS011;23129;49.662;8.448;2024-02-21T08:20:11;22.52;;;7.80;;
37237;SDS011;23129;49.662;8.448;2024-02-21T08:22:40;16.08;;;6.85;;
37237;SDS011;23129;49.662;8.448;2024-02-21T08:25:10;25.02;;;7.32;;
37237;SDS011;23129;49.662;8.448;2024-02-21T08:27:38;15.93;;;7.57;;
37237;SDS011;23129;49.662;8.448;2024-02-21T08:30:07;15.60;;;6.28;;
37237;SDS011;23129;49.662;8.448;2024-02-21T08:32:37;9.40;;;5.38;;
37237;SDS011;23129;49.662;8.448;2024-02-21T08:35:05;27.65;;;7.40;;
37237;SDS011;23129;49.662;8.448;2024-02-21T08:37:35;15.20;;;6.43;;
37237;SDS011;23129;49.662;8.448;2024-02-21T08:40:04;17.67;;;5.90;;
37237;SDS011;23129;49.662;8.448;2024-02-21T08:42:37;16.35;;;6.63;;
37237;SDS011;23129;49.662;8.448;2024-02-21T08:45:08;12.45;;;5.70;;
37237;SDS011;23129;49.662;8.448;2024-02-21T08:47:39;25.13;;;5.75;;
37237;SDS011;23129;49.662;8.448;2024-02-21T08:50:08;14.63;;;6.50;;
37237;SDS011;23129;49.662;8.448;2024-02-21T08:52:52;13.50;;;5.38;;
37237;SDS011;23129;49.662;8.448;2024-02-21T08:55:21;18.48;;;5.45;;
37237;SDS011;23129;49.662;8.448;2024-02-21T08:57:52;14.13;;;5.07;;
37237;SDS011;23129;49.662;8.448;2024-02-21T09:00:21;16.60;;;5.40;;
37237;SDS011;23129;49.662;8.448;2024-02-21T09:02:54;13.63;;;3.83;;
37237;SDS011;23129;49.662;8.448;2024-02-21T09:05:23;10.25;;;3.83;;
37237;SDS011;23129;49.662;8.448;2024-02-21T09:07:52;10.77;;;3.67;;
37237;SDS011;23129;49.662;8.448;2024-02-21T09:10:21;11.43;;;4.00;;
37237;SDS011;23129;49.662;8.448;2024-02-21T09:12:50;23.52;;;5.78;;
37237;SDS011;23129;49.662;8.448;2024-02-21T09:15:20;12.90;;;5.50;;
37237;SDS011;23129;49.662;8.448;2024-02-21T09:17:50;16.40;;;4.82;;
37237;SDS011;23129;49.662;8.448;2024-02-21T09:20:19;9.73;;;4.40;;
37237;SDS011;23129;49.662;8.448;2024-02-21T09:22:48;15.15;;;3.80;;
37237;SDS011;23129;49.662;8.448;2024-02-21T09:25:17;16.60;;;5.18;;
37237;SDS011;23129;49.662;8.448;2024-02-21T09:27:45;11.90;;;3.97;;
37237;SDS011;23129;49.662;8.448;2024-02-21T09:30:16;15.02;;;4.60;;
37237;SDS011;23129;49.662;8.448;2024-02-21T09:32:45;16.75;;;4.35;;
37237;SDS011;23129;49.662;8.448;2024-02-21T09:35:14;16.70;;;3.75;;
37237;SDS011;23129;49.662;8.448;2024-02-21T09:37:43;11.95;;;3.88;;
37237;SDS011;23129;49.662;8.448;2024-02-21T09:40:12;9.95;;;3.90;;
37237;SDS011;23129;49.662;8.448;2024-02-21T09:42:44;10.43;;;3.78;;
37237;SDS011;23129;49.662;8.448;2024-02-21T09:45:19;14.23;;;4.15;;
37237;SDS011;23129;49.662;8.448;2024-02-21T09:47:50;13.45;;;3.90;;
37237;SDS011;23129;49.662;8.448;2024-02-21T09:50:48;11.55;;;3.22;;
37237;SDS011;23129;49.662;8.448;2024-02-21T09:53:17;11.20;;;2.53;;
37237;SDS011;23129;49.662;8.448;2024-02-21T09:55:47;8.30;;;3.17;;
37237;SDS011;23129;49.662;8.448;2024-02-21T09:58:16;10.82;;;2.63;;
37237;SDS011;23129;49.662;8.448;2024-02-21T10:00:47;9.13;;;2.50;;
37237;SDS011;23129;49.662;8.448;2024-02-21T10:03:16;12.65;;;2.97;;
37237;SDS011;23129;49.662;8.448;2024-02-21T10:05:46;15.95;;;3.08;;
37237;SDS011;23129;49.662;8.448;2024-02-21T10:08:17;22.02;;;4.28;;
37237;SDS011;23129;49.662;8.448;2024-02-21T10:10:47;11.25;;;3.20;;
37237;SDS011;23129;49.662;8.448;2024-02-21T10:13:23;10.55;;;2.25;;
37237;SDS011;23129;49.662;8.448;2024-02-21T10:16:02;4.97;;;2.28;;
37237;SDS011;23129;49.662;8.448;2024-02-21T10:18:32;10.20;;;2.72;;
37237;SDS011;23129;49.662;8.448;2024-02-21T10:21:01;11.48;;;3.15;;
37237;SDS011;23129;49.662;8.448;2024-02-21T10:23:41;21.27;;;3.42;;
37237;SDS011;23129;49.662;8.448;2024-02-21T10:26:10;6.75;;;2.47;;
37237;SDS011;23129;49.662;8.448;2024-02-21T10:28:39;18.00;;;3.25;;
37237;SDS011;23129;49.662;8.448;2024-02-21T10:31:11;6.40;;;2.40;;
37237;SDS011;23129;49.662;8.448;2024-02-21T10:33:53;16.42;;;3.13;;
37237;SDS011;23129;49.662;8.448;2024-02-21T10:36:23;11.50;;;2.67;;
37237;SDS011;23129;49.662;8.448;2024-02-21T10:38:53;7.22;;;2.33;;
37237;SDS011;23129;49.662;8.448;2024-02-21T10:41:22;10.75;;;2.40;;
37237;SDS011;23129;49.662;8.448;2024-02-21T10:43:53;8.50;;;2.47;;
37237;SDS011;23129;49.662;8.448;2024-02-21T10:46:24;14.35;;;2.13;;
37237;SDS011;23129;49.662;8.448;2024-02-21T10:48:56;6.93;;;2.20;;
37237;SDS011;23129;49.662;8.448;2024-02-21T10:51:33;12.05;;;2.80;;
37237;SDS011;23129;49.662;8.448;2024-02-21T10:54:08;10.23;;;2.33;;
37237;SDS011;23129;49.662;8.448;2024-02-21T10:56:48;9.45;;;2.67;;
37237;SDS011;23129;49.662;8.448;2024-02-21T10:59:18;9.13;;;2.65;;
37237;SDS011;23129;49.662;8.448;2024-02-21T11:01:50;11.05;;;2.45;;
37237;SDS011;23129;49.662;8.448;2024-02-21T11:04:24;7.32;;;1.73;;
37237;SDS011;23129;49.662;8.448;2024-02-21T11:06:55;9.57;;;1.77;;
37237;SDS011;23129;49.662;8.448;2024-02-21T11:09:29;7.32;;;2.38;;
37237;SDS011;23129;49.662;8.448;2024-02-21T11:12:01;6.15;;;2.13;;
37237;SDS011;23129;49.662;8.448;2024-02-21T11:14:31;12.35;;;2.35;;
37237;SDS011;23129;49.662;8.448;2024-02-21T11:17:13;8.80;;;1.92;;
37237;SDS011;23129;49.662;8.448;2024-02-21T11:19:43;4.82;;;2.00;;
37237;SDS011;23129;49.662;8.448;2024-02-21T11:22:15;10.68;;;2.08;;
37237;SDS011;23129;49.662;8.448;2024-02-21T11:24:45;9.25;;;2.15;;
37237;SDS011;23129;49.662;8.448;2024-02-21T11:27:14;8.90;;;1.90;;
37237;SDS011;23129;49.662;8.448;2024-02-21T11:29:46;8.32;;;3.10;;
37237;SDS011;23129;49.662;8.448;2024-02-21T11:32:20;9.90;;;2.08;;
37237;SDS011;23129;49.662;8.448;2024-02-21T11:34:55;11.02;;;1.90;;
37237;SDS011;23129;49.662;8.448;2024-02-21T11:37:29;13.75;;;2.30;;
37237;SDS011;23129;49.662;8.448;2024-02-21T11:40:00;12.23;;;2.05;;
37237;SDS011;23129;49.662;8.448;2024-02-21T11:42:30;11.13;;;1.70;;
37237;SDS011;23129;49.662;8.448;2024-02-21T11:44:59;16.13;;;2.60;;
37237;SDS011;23129;49.662;8.448;2024-02-21T11:47:30;11.32;;;2.65;;
37237;SDS011;23129;49.662;8.448;2024-02-21T11:49:59;4.30;;;1.75;;
37237;SDS011;23129;49.662;8.448;2024-02-21T11:52:31;5.40;;;2.05;;
37237;SDS011;23129;49.662;8.448;2024-02-21T11:54:59;6.88;;;2.35;;
37237;SDS011;23129;49.662;8.448;2024-02-21T11:57:32;8.85;;;2.30;;
37237;SDS011;23129;49.662;8.448;2024-02-21T12:00:10;9.15;;;2.42;;
37237;SDS011;23129;49.662;8.448;2024-02-21T12:02:44;13.77;;;2.85;;
37237;SDS011;23129;49.662;8.448;2024-02-21T12:05:13;8.65;;;2.53;;
37237;SDS011;23129;49.662;8.448;2024-02-21T12:07:42;5.53;;;2.75;;
37237;SDS011;23129;49.662;8.448;2024-02-21T12:10:11;6.65;;;2.17;;
37237;SDS011;23129;49.662;8.448;2024-02-21T12:12:41;10.63;;;2.83;;
37237;SDS011;23129;49.662;8.448;2024-02-21T12:15:09;6.13;;;1.80;;
37237;SDS011;23129;49.662;8.448;2024-02-21T12:17:39;10.73;;;2.22;;
37237;SDS011;23129;49.662;8.448;2024-02-21T12:20:10;14.10;;;2.50;;
37237;SDS011;23129;49.662;8.448;2024-02-21T12:22:39;12.70;;;2.55;;
37237;SDS011;23129;49.662;8.448;2024-02-21T12:25:16;9.98;;;2.30;;
37237;SDS011;23129;49.662;8.448;2024-02-21T12:27:46;7.85;;;2.38;;
37237;SDS011;23129;49.662;8.448;2024-02-21T12:30:15;10.27;;;2.28;;
37237;SDS011;23129;49.662;8.448;2024-02-21T12:32:44;12.50;;;2.33;;
37237;SDS011;23129;49.662;8.448;2024-02-21T12:35:16;10.13;;;2.40;;
37237;SDS011;23129;49.662;8.448;2024-02-21T12:37:45;7.53;;;1.80;;
37237;SDS011;23129;49.662;8.448;2024-02-21T12:40:14;9.27;;;2.05;;
37237;SDS011;23129;49.662;8.448;2024-02-21T12:42:43;6.38;;;1.52;;
37237;SDS011;23129;49.662;8.448;2024-02-21T12:45:12;9.65;;;1.70;;
37237;SDS011;23129;49.662;8.448;2024-02-21T12:47:42;11.50;;;2.17;;
37237;SDS011;23129;49.662;8.448;2024-02-21T12:50:11;8.00;;;1.92;;
37237;SDS011;23129;49.662;8.448;2024-02-21T12:52:43;6.43;;;1.45;;
37237;SDS011;23129;49.662;8.448;2024-02-21T12:55:12;12.07;;;2.55;;
37237;SDS011;23129;49.662;8.448;2024-02-21T12:57:41;7.90;;;1.98;;
37237;SDS011;23129;49.662;8.448;2024-02-21T13:00:10;9.65;;;1.98;;
37237;SDS011;23129;49.662;8.448;2024-02-21T13:02:40;3.45;;;1.83;;
37237;SDS011;23129;49.662;8.448;2024-02-21T13:05:09;9.13;;;1.63;;
37237;SDS011;23129;49.662;8.448;2024-02-21T13:07:38;9.50;;;1.80;;
37237;SDS011;23129;49.662;8.448;2024-02-21T13:10:09;2.72;;;1.60;;
37237;SDS011;23129;49.662;8.448;2024-02-21T13:12:37;4.55;;;1.80;;
37237;SDS011;23129;49.662;8.448;2024-02-21T13:15:07;15.23;;;1.92;;
37237;SDS011;23129;49.662;8.448;2024-02-21T13:17:38;6.57;;;1.60;;
37237;SDS011;23129;49.662;8.448;2024-02-21T13:20:07;9.13;;;1.58;;
37237;SDS011;23129;49.662;8.448;2024-02-21T13:22:37;8.70;;;2.17;;
37237;SDS011;23129;49.662;8.448;2024-02-21T13:25:06;4.32;;;1.60;;
37237;SDS011;23129;49.662;8.448;2024-02-21T13:27:37;4.45;;;1.50;;
37237;SDS011;23129;49.662;8.448;2024-02-21T13:30:06;7.40;;;2.45;;
37237;SDS011;23129;49.662;8.448;2024-02-21T13:32:36;11.52;;;1.75;;
37237;SDS011;23129;49.662;8.448;2024-02-21T13:35:05;8.98;;;1.80;;
37237;SDS011;23129;49.662;8.448;2024-02-21T13:37:35;8.48;;;1.50;;
37237;SDS011;23129;49.662;8.448;2024-02-21T13:40:04;4.13;;;2.22;;
37237;SDS011;23129;49.662;8.448;2024-02-21T13:42:37;11.20;;;2.10;;
37237;SDS011;23129;49.662;8.448;2024-02-21T13:45:06;11.48;;;1.88;;
37237;SDS011;23129;49.662;8.448;2024-02-21T13:47:35;16.83;;;1.92;;
37237;SDS011;23129;49.662;8.448;2024-02-21T13:50:05;11.05;;;2.80;;
37237;SDS011;23129;49.662;8.448;2024-02-21T13:52:37;10.38;;;2.20;;
37237;SDS011;23129;49.662;8.448;2024-02-21T13:55:06;12.70;;;2.75;;
37237;SDS011;23129;49.662;8.448;2024-02-21T13:57:37;7.20;;;2.15;;
37237;SDS011;23129;49.662;8.448;2024-02-21T14:00:06;7.72;;;2.50;;
37237;SDS011;23129;49.662;8.448;2024-02-21T14:02:40;11.55;;;2.72;;
37237;SDS011;23129;49.662;8.448;2024-02-21T14:05:09;19.23;;;2.45;;
37237;SDS011;23129;49.662;8.448;2024-02-21T14:07:38;6.30;;;2.50;;
37237;SDS011;23129;49.662;8.448;2024-02-21T14:10:08;9.13;;;2.75;;
37237;SDS011;23129;49.662;8.448;2024-02-21T14:12:38;8.45;;;2.03;;
37237;SDS011;23129;49.662;8.448;2024-02-21T14:15:07;14.88;;;3.42;;
37237;SDS011;23129;49.662;8.448;2024-02-21T14:17:36;15.20;;;3.00;;
37237;SDS011;23129;49.662;8.448;2024-02-21T14:20:06;12.15;;;2.38;;
37237;SDS011;23129;49.662;8.448;2024-02-21T14:22:39;9.68;;;2.05;;
37237;SDS011;23129;49.662;8.448;2024-02-21T14:25:08;4.38;;;1.90;;
37237;SDS011;23129;49.662;8.448;2024-02-21T14:27:36;4.28;;;1.75;;
37237;SDS011;23129;49.662;8.448;2024-02-21T14:30:07;11.23;;;2.47;;
37237;SDS011;23129;49.662;8.448;2024-02-21T14:32:37;8.02;;;2.30;;
37237;SDS011;23129;49.662;8.448;2024-02-21T14:35:11;9.32;;;2.40;;
37237;SDS011;23129;49.662;8.448;2024-02-21T14:37:40;12.07;;;2.55;;
37237;SDS011;23129;49.662;8.448;2024-02-21T14:40:09;14.00;;;2.60;;
37237;SDS011;23129;49.662;8.448;2024-02-21T14:42:39;8.38;;;2.17;;
37237;SDS011;23129;49.662;8.448;2024-02-21T14:45:08;8.82;;;2.45;;
37237;SDS011;23129;49.662;8.448;2024-02-21T14:47:38;6.85;;;2.33;;
37237;SDS011;23129;49.662;8.448;2024-02-21T14:50:06;11.13;;;2.28;;
37237;SDS011;23129;49.662;8.448;2024-02-21T14:52:36;9.57;;;2.47;;
37237;SDS011;23129;49.662;8.448;2024-02-21T14:55:05;13.95;;;2.42;;